Time;durP1;ratioP1;P1;durP2;ratioP2;P2;SDS_P1;SDS_P2;PMS_P1;PMS_P2;Temp;Humidity;BMP_temperature;BMP_pressure;BME280_temperature;BME280_humidity;BME280_pressure;Samples;Min_cycle;Max_cycle;Signal;HPM_P1;HPM_P2
2023/07/08 00:01:28;;;;;;;9.05;3.38;;;;;;;;;;4990379;28;93442;-80
2023/07/08 00:03:55;;;;;;;9.27;3.72;;;;;;;;;;4998937;28;93662;-80
2023/07/08 00:06:23;;;;;;;10.50;3.50;;;;;;;;;;4977504;28;93062;-79
2023/07/08 00:08:49;;;;;;;7.63;3.25;;;;;;;;;;4981355;28;92778;-79
2023/07/08 00:11:16;;;;;;;8.23;3.42;;;;;;;;;;4990794;28;94210;-80
2023/07/08 00:13:43;;;;;;;;;;;;;;;;;;4984198;28;93577;-80
2023/07/08 00:16:11;;;;;;;8.98;3.60;;;;;;;;;;4985730;28;117510;-80
2023/07/08 00:18:38;;;;;;;10.07;3.40;;;;;;;;;;4990249;28;98554;-81
2023/07/08 00:21:08;;;;;;;9.40;3.50;;;;;;;;;;4990588;28;95377;-80
2023/07/08 00:23:35;;;;;;;10.25;3.40;;;;;;;;;;4988668;28;94668;-80
2023/07/08 00:26:04;;;;;;;12.23;3.30;;;;;;;;;;4988380;28;94556;-80
2023/07/08 00:28:30;;;;;;;9.63;3.50;;;;;;;;;;4989723;28;92434;-80
2023/07/08 00:30:57;;;;;;;9.68;3.28;;;;;;;;;;4971284;28;95463;-80
2023/07/08 00:33:24;;;;;;;;;;;;;;;;;;4987367;28;95640;-80
2023/07/08 00:35:50;;;;;;;10.05;3.10;;;;;;;;;;5002328;28;108415;-80
2023/07/08 00:38:20;;;;;;;10.23;3.15;;;;;;;;;;4988013;28;96087;-80
2023/07/08 00:41:01;;;;;;;9.98;3.35;;;;;;;;;;4976643;28;92490;-80
2023/07/08 00:43:39;;;;;;;8.35;3.15;;;;;;;;;;4988513;28;94975;-80
2023/07/08 00:46:17;;;;;;;8.45;3.55;;;;;;;;;;4987803;28;96185;-80
2023/07/08 00:48:45;;;;;;;7.15;3.30;;;;;;;;;;4989314;28;92524;-80
2023/07/08 00:51:12;;;;;;;8.35;3.08;;;;;;;;;;4970470;28;92877;-80
2023/07/08 00:53:38;;;;;;;9.40;3.78;;;;;;;;;;4988806;28;92968;-80
2023/07/08 00:56:23;;;;;;;8.07;3.05;;;;;;;;;;4988210;28;92976;-79
2023/07/08 00:58:56;;;;;;;6.10;3.25;;;;;;;;;;4994481;28;93260;-79
2023/07/08 01:01:23;;;;;;;6.68;3.17;;;;;;;;;;4983286;28;91671;-80
2023/07/08 01:04:01;;;;;;;7.25;3.22;;;;;;;;;;4988904;28;92430;-80
2023/07/08 01:06:31;;;;;;;6.10;3.10;;;;;;;;;;4994554;28;94190;-80
2023/07/08 01:09:04;;;;;;;6.70;3.17;;;;;;;;;;4991480;28;94830;-80
2023/07/08 01:11:32;;;;;;;7.32;3.30;;;;;;;;;;4979803;28;95383;-80
2023/07/08 01:13:59;;;;;;;6.40;3.15;;;;;;;;;;4990938;28;93275;-80
2023/07/08 01:16:26;;;;;;;7.93;3.22;;;;;;;;;;5000339;28;92694;-80
2023/07/08 01:18:53;;;;;;;6.97;3.55;;;;;;;;;;5005470;28;92619;-80
2023/07/08 01:21:31;;;;;;;7.30;3.50;;;;;;;;;;5009122;28;92448;-80
2023/07/08 01:23:59;;;;;;;9.05;3.10;;;;;;;;;;5004841;28;92891;-79
2023/07/08 01:26:26;;;;;;;7.38;3.42;;;;;;;;;;5009405;28;92442;-80
2023/07/08 01:28:53;;;;;;;;;;;;;;;;;;5009442;28;92193;-79
2023/07/08 01:31:20;;;;;;;13.07;3.22;;;;;;;;;;5015462;28;92836;-80
2023/07/08 01:33:47;;;;;;;9.50;3.38;;;;;;;;;;5002693;28;94752;-80
2023/07/08 01:36:13;;;;;;;7.50;3.20;;;;;;;;;;4992186;28;92883;-80
2023/07/08 01:38:41;;;;;;;8.00;3.38;;;;;;;;;;5000438;28;94264;-79
2023/07/08 01:41:11;;;;;;;6.88;3.50;;;;;;;;;;4987403;28;92996;-80
2023/07/08 01:43:37;;;;;;;6.28;3.13;;;;;;;;;;4994541;28;94757;-80
2023/07/08 01:46:09;;;;;;;7.10;3.13;;;;;;;;;;4990145;28;93423;-80
2023/07/08 01:48:36;;;;;;;6.65;3.00;;;;;;;;;;4984715;28;92820;-80
2023/07/08 01:51:04;;;;;;;10.07;3.33;;;;;;;;;;4992839;28;92651;-80
2023/07/08 01:53:34;;;;;;;10.88;3.20;;;;;;;;;;4994104;28;93256;-80
2023/07/08 01:56:01;;;;;;;7.95;3.20;;;;;;;;;;4990660;28;92562;-79
2023/07/08 01:58:28;;;;;;;6.70;3.50;;;;;;;;;;4989579;28;94967;-80
2023/07/08 02:00:55;;;;;;;7.43;3.10;;;;;;;;;;4988453;28;95795;-80
2023/07/08 02:03:22;;;;;;;7.22;3.35;;;;;;;;;;4984327;28;92593;-79
2023/07/08 02:05:49;;;;;;;7.68;3.30;;;;;;;;;;4988587;28;96156;-80
2023/07/08 02:08:15;;;;;;;6.30;3.08;;;;;;;;;;4992272;28;92424;-79
2023/07/08 02:10:42;;;;;;;7.18;3.20;;;;;;;;;;4990431;28;95658;-80
2023/07/08 02:13:09;;;;;;;6.07;2.53;;;;;;;;;;4989416;28;93108;-80
2023/07/08 02:15:35;;;;;;;6.55;3.22;;;;;;;;;;4990706;28;92163;-80
2023/07/08 02:18:02;;;;;;;7.43;3.30;;;;;;;;;;4990297;28;93182;-80
2023/07/08 02:20:28;;;;;;;7.10;3.28;;;;;;;;;;5001004;28;93728;-80
2023/07/08 02:22:56;;;;;;;;;;;;;;;;;;4988812;28;94902;-80
2023/07/08 02:25:22;;;;;;;6.03;2.85;;;;;;;;;;4994865;28;117351;-80
2023/07/08 02:27:49;;;;;;;6.93;3.00;;;;;;;;;;4986702;28;92492;-80
2023/07/08 02:30:15;;;;;;;7.00;3.13;;;;;;;;;;4989738;28;95582;-79
2023/07/08 02:32:56;;;;;;;7.00;3.28;;;;;;;;;;4991337;28;94097;-80
2023/07/08 02:35:27;;;;;;;7.78;3.38;;;;;;;;;;4997803;28;92521;-80
2023/07/08 02:37:55;;;;;;;7.10;2.90;;;;;;;;;;4990775;28;94236;-79
2023/07/08 02:40:22;;;;;;;7.72;3.15;;;;;;;;;;4983799;28;92651;-79
2023/07/08 02:42:48;;;;;;;7.70;3.28;;;;;;;;;;4991708;28;92754;-79
2023/07/08 02:45:15;;;;;;;5.78;2.90;;;;;;;;;;4991670;28;92861;-79
2023/07/08 02:47:42;;;;;;;6.72;3.20;;;;;;;;;;4990905;28;97120;-79
2023/07/08 02:50:10;;;;;;;6.72;3.38;;;;;;;;;;4999952;28;97179;-79
2023/07/08 02:52:36;;;;;;;;;;;;;;;;;;4989921;28;93174;-79
2023/07/08 02:55:03;;;;;;;7.00;3.38;;;;;;;;;;4979635;28;92841;-80
2023/07/08 02:57:29;;;;;;;6.13;3.10;;;;;;;;;;4983447;28;94034;-81
2023/07/08 02:59:56;;;;;;;7.30;3.20;;;;;;;;;;4987658;28;93563;-82
2023/07/08 03:02:22;;;;;;;6.78;3.28;;;;;;;;;;4989933;28;92431;-81
2023/07/08 03:04:49;;;;;;;11.20;3.20;;;;;;;;;;4997596;28;95711;-81
2023/07/08 03:07:16;;;;;;;9.57;3.40;;;;;;;;;;4993478;28;92514;-80
2023/07/08 03:09:43;;;;;;;7.70;3.45;;;;;;;;;;4985290;28;92530;-81
2023/07/08 03:12:10;;;;;;;9.30;3.53;;;;;;;;;;4989229;28;96528;-80
2023/07/08 03:14:38;;;;;;;7.65;3.45;;;;;;;;;;4989424;28;92525;-80
2023/07/08 03:17:04;;;;;;;11.60;3.70;;;;;;;;;;4991388;28;92825;-80
2023/07/08 03:19:32;;;;;;;7.65;3.22;;;;;;;;;;4993368;28;92526;-80
2023/07/08 03:21:59;;;;;;;9.27;3.40;;;;;;;;;;4994851;28;93402;-80
2023/07/08 03:24:26;;;;;;;8.32;3.58;;;;;;;;;;4987095;28;94060;-80
2023/07/08 03:26:54;;;;;;;7.10;3.50;;;;;;;;;;4989315;28;95601;-81
2023/07/08 03:29:23;;;;;;;7.30;3.35;;;;;;;;;;4989655;28;91857;-80
2023/07/08 03:31:50;;;;;;;8.20;3.20;;;;;;;;;;4994125;28;92401;-81
2023/07/08 03:34:16;;;;;;;6.53;3.20;;;;;;;;;;4988902;28;92495;-80
2023/07/08 03:36:48;;;;;;;10.10;3.28;;;;;;;;;;4993316;28;95421;-80
2023/07/08 03:39:20;;;;;;;6.95;3.13;;;;;;;;;;4985729;28;94370;-80
2023/07/08 03:41:47;;;;;;;9.82;3.13;;;;;;;;;;4975686;28;92670;-80
2023/07/08 03:44:15;;;;;;;6.88;3.45;;;;;;;;;;4990761;28;92381;-80
2023/07/08 03:46:46;;;;;;;6.88;3.10;;;;;;;;;;4988134;28;96062;-80
2023/07/08 03:49:16;;;;;;;8.35;3.72;;;;;;;;;;4988598;28;92728;-80
2023/07/08 03:51:43;;;;;;;8.35;3.20;;;;;;;;;;4998445;28;95685;-80
2023/07/08 03:54:12;;;;;;;9.52;3.70;;;;;;;;;;4990525;28;91800;-79
2023/07/08 03:56:39;;;;;;;9.15;3.28;;;;;;;;;;4988147;28;92542;-78
2023/07/08 03:59:07;;;;;;;10.23;3.13;;;;;;;;;;4988182;28;93114;-78
2023/07/08 04:01:34;;;;;;;7.07;3.30;;;;;;;;;;4986561;28;94851;-78
2023/07/08 04:04:01;;;;;;;9.68;3.17;;;;;;;;;;4987392;28;98480;-78
2023/07/08 04:06:32;;;;;;;8.45;3.80;;;;;;;;;;4998488;28;93012;-77
2023/07/08 04:08:59;;;;;;;6.00;3.10;;;;;;;;;;4975867;28;92702;-79
2023/07/08 04:11:25;;;;;;;8.60;3.53;;;;;;;;;;4988129;28;95539;-78
2023/07/08 04:13:52;;;;;;;8.57;4.00;;;;;;;;;;4992226;28;93248;-78
2023/07/08 04:16:21;;;;;;;8.60;3.70;;;;;;;;;;4988259;28;94083;-78
2023/07/08 04:18:50;;;;;;;6.60;3.10;;;;;;;;;;4981747;28;92486;-80
2023/07/08 04:21:17;;;;;;;7.07;3.40;;;;;;;;;;4987671;28;92713;-78
2023/07/08 04:23:47;;;;;;;7.75;3.30;;;;;;;;;;4989232;28;93098;-77
2023/07/08 04:26:13;;;;;;;8.02;3.47;;;;;;;;;;4987672;28;94877;-77
2023/07/08 04:28:40;;;;;;;10.13;3.20;;;;;;;;;;4989544;28;93008;-77
2023/07/08 04:31:07;;;;;;;6.80;3.50;;;;;;;;;;4989400;28;92820;-77
2023/07/08 04:33:34;;;;;;;9.70;3.78;;;;;;;;;;4987221;28;93049;-78
2023/07/08 04:36:00;;;;;;;7.50;3.55;;;;;;;;;;5002568;28;92775;-80
2023/07/08 04:38:27;;;;;;;6.60;3.40;;;;;;;;;;4989101;28;95241;-79
2023/07/08 04:40:54;;;;;;;9.65;3.58;;;;;;;;;;4970769;28;93076;-80
2023/07/08 04:43:21;;;;;;;8.30;3.30;;;;;;;;;;4988266;28;92732;-79
2023/07/08 04:45:47;;;;;;;;;;;;;;;;;;4989816;28;93089;-79
2023/07/08 04:48:14;;;;;;;7.00;3.03;;;;;;;;;;4990720;28;93904;-77
2023/07/08 04:50:45;;;;;;;5.80;2.90;;;;;;;;;;4994108;28;95864;-78
2023/07/08 04:53:12;;;;;;;6.45;2.95;;;;;;;;;;4992258;28;93074;-78
2023/07/08 04:55:41;;;;;;;9.90;3.22;;;;;;;;;;4988954;28;93750;-78
2023/07/08 04:58:08;;;;;;;6.85;3.22;;;;;;;;;;4992070;28;92817;-78
2023/07/08 05:00:35;;;;;;;6.90;3.15;;;;;;;;;;4984297;28;92944;-78
2023/07/08 05:03:01;;;;;;;7.50;3.17;;;;;;;;;;4981586;28;92819;-78
2023/07/08 05:05:28;;;;;;;9.93;3.45;;;;;;;;;;4988854;28;93633;-79
2023/07/08 05:07:55;;;;;;;7.05;3.20;;;;;;;;;;4996653;28;91750;-78
2023/07/08 05:10:22;;;;;;;6.82;3.25;;;;;;;;;;4988233;28;92842;-78
2023/07/08 05:12:48;;;;;;;7.70;3.10;;;;;;;;;;4988477;28;94954;-78
2023/07/08 05:15:15;;;;;;;9.40;3.10;;;;;;;;;;4977210;28;94930;-78
2023/07/08 05:17:42;;;;;;;6.32;3.08;;;;;;;;;;4988214;28;97892;-78
2023/07/08 05:20:10;;;;;;;9.77;3.40;;;;;;;;;;4995105;28;93223;-79
2023/07/08 05:22:36;;;;;;;7.88;3.33;;;;;;;;;;5005665;28;92771;-78
2023/07/08 05:25:05;;;;;;;8.55;3.30;;;;;;;;;;4992355;28;93034;-78
2023/07/08 05:27:33;;;;;;;12.13;3.42;;;;;;;;;;4992358;28;92478;-78
2023/07/08 05:30:05;;;;;;;8.45;3.13;;;;;;;;;;4992000;28;92754;-78
2023/07/08 05:32:32;;;;;;;6.43;3.17;;;;;;;;;;4992829;28;92320;-78
2023/07/08 05:34:58;;;;;;;;;;;;;;;;;;4989533;28;92452;-78
2023/07/08 05:37:27;;;;;;;6.93;3.10;;;;;;;;;;5002413;28;105563;-78
2023/07/08 05:39:54;;;;;;;7.30;3.15;;;;;;;;;;4991088;28;95969;-78
2023/07/08 05:42:21;;;;;;;9.68;3.38;;;;;;;;;;4994095;28;92539;-78
2023/07/08 05:44:48;;;;;;;6.18;3.28;;;;;;;;;;4988558;28;93482;-80
2023/07/08 05:47:14;;;;;;;8.40;3.40;;;;;;;;;;4990760;28;93156;-80
2023/07/08 05:49:41;;;;;;;6.60;3.28;;;;;;;;;;4992113;28;93245;-77
2023/07/08 05:52:11;;;;;;;6.82;3.03;;;;;;;;;;4994361;28;93731;-78
2023/07/08 05:54:38;;;;;;;6.00;3.22;;;;;;;;;;4996359;28;92934;-78
2023/07/08 05:57:09;;;;;;;8.27;3.40;;;;;;;;;;4984415;28;91786;-78
2023/07/08 05:59:36;;;;;;;6.70;3.30;;;;;;;;;;4984817;28;93082;-78
2023/07/08 06:02:03;;;;;;;7.20;3.22;;;;;;;;;;4995335;28;92482;-78
2023/07/08 06:04:30;;;;;;;7.10;3.28;;;;;;;;;;4989924;28;96789;-78
2023/07/08 06:06:57;;;;;;;7.35;3.33;;;;;;;;;;4991650;28;92440;-78
2023/07/08 06:09:24;;;;;;;6.35;3.25;;;;;;;;;;5002080;28;92944;-79
2023/07/08 06:11:50;;;;;;;9.68;3.30;;;;;;;;;;4981034;28;93177;-79
2023/07/08 06:14:17;;;;;;;8.00;3.10;;;;;;;;;;4991805;28;92789;-79
2023/07/08 06:16:44;;;;;;;18.60;3.13;;;;;;;;;;4991534;28;92859;-78
2023/07/08 06:19:14;;;;;;;8.40;3.20;;;;;;;;;;4989947;28;93206;-79
2023/07/08 06:21:41;;;;;;;10.68;3.30;;;;;;;;;;4992578;28;92298;-80
2023/07/08 06:24:08;;;;;;;7.32;3.47;;;;;;;;;;4992980;28;93119;-79
2023/07/08 06:26:35;;;;;;;7.20;3.22;;;;;;;;;;4980949;28;92570;-79
2023/07/08 06:29:02;;;;;;;8.45;3.40;;;;;;;;;;4987528;28;94901;-78
2023/07/08 06:31:28;;;;;;;11.18;3.80;;;;;;;;;;4991817;28;93789;-79
2023/07/08 06:33:55;;;;;;;7.50;3.50;;;;;;;;;;4991638;28;92473;-78
2023/07/08 06:36:22;;;;;;;8.30;3.13;;;;;;;;;;4990296;28;93045;-78
2023/07/08 06:38:49;;;;;;;8.55;3.35;;;;;;;;;;4971031;28;93936;-79
2023/07/08 06:41:16;;;;;;;6.75;3.40;;;;;;;;;;4971815;28;92864;-79
2023/07/08 06:43:42;;;;;;;8.93;3.63;;;;;;;;;;4986490;28;92953;-80
2023/07/08 06:46:15;;;;;;;8.10;3.20;;;;;;;;;;4994548;28;92412;-79
2023/07/08 06:48:42;;;;;;;8.40;3.65;;;;;;;;;;4989611;28;92579;-79
2023/07/08 06:51:08;;;;;;;7.60;3.33;;;;;;;;;;4993184;28;93593;-80
2023/07/08 06:53:36;;;;;;;9.18;3.63;;;;;;;;;;4978016;28;94830;-79
2023/07/08 06:56:03;;;;;;;6.43;3.13;;;;;;;;;;4970801;28;95058;-78
2023/07/08 06:58:30;;;;;;;5.65;2.78;;;;;;;;;;4970886;28;93538;-80
2023/07/08 07:00:56;;;;;;;8.20;3.65;;;;;;;;;;4970573;28;92457;-79
2023/07/08 07:03:24;;;;;;;8.52;3.15;;;;;;;;;;4980351;28;93032;-79
2023/07/08 07:05:50;;;;;;;8.65;3.75;;;;;;;;;;4976215;28;93193;-78
2023/07/08 07:08:17;;;;;;;7.70;3.50;;;;;;;;;;4973266;28;92491;-78
2023/07/08 07:10:43;;;;;;;7.35;3.33;;;;;;;;;;4969394;28;94979;-78
2023/07/08 07:13:10;;;;;;;7.63;3.30;;;;;;;;;;4979768;28;92455;-80
2023/07/08 07:15:37;;;;;;;8.60;3.85;;;;;;;;;;4989359;28;93872;-81
2023/07/08 07:18:03;;;;;;;7.28;3.50;;;;;;;;;;4989357;28;96085;-81
2023/07/08 07:20:30;;;;;;;8.27;3.40;;;;;;;;;;4996250;28;93035;-80
2023/07/08 07:22:56;;;;;;;7.05;3.22;;;;;;;;;;4978615;28;92530;-82
2023/07/08 07:25:23;;;;;;;7.97;3.20;;;;;;;;;;4989746;28;93337;-81
2023/07/08 07:27:50;;;;;;;8.43;3.83;;;;;;;;;;4989907;28;92527;-86
2023/07/08 07:30:16;;;;;;;13.90;3.85;;;;;;;;;;4993618;28;92445;-81
2023/07/08 07:32:43;;;;;;;35.00;5.10;;;;;;;;;;4986134;28;92731;-80
2023/07/08 07:35:12;;;;;;;21.75;4.20;;;;;;;;;;4983954;28;93483;-80
2023/07/08 07:37:40;;;;;;;8.50;3.67;;;;;;;;;;4978532;28;93679;-79
2023/07/08 07:40:14;;;;;;;10.35;3.70;;;;;;;;;;4982297;28;92886;-81
2023/07/08 07:42:41;;;;;;;9.75;3.90;;;;;;;;;;4988468;28;95408;-82
2023/07/08 07:45:08;;;;;;;8.48;3.55;;;;;;;;;;4989052;28;93216;-80
2023/07/08 07:47:36;;;;;;;8.82;3.50;;;;;;;;;;4990764;28;92410;-79
2023/07/08 07:50:03;;;;;;;8.02;3.63;;;;;;;;;;4991499;28;92744;-79
2023/07/08 07:52:30;;;;;;;10.55;3.67;;;;;;;;;;4990018;28;92836;-79
2023/07/08 07:54:57;;;;;;;8.63;3.70;;;;;;;;;;4990540;28;93192;-79
2023/07/08 07:57:23;;;;;;;8.10;3.67;;;;;;;;;;4989156;28;93204;-79
2023/07/08 07:59:50;;;;;;;7.20;3.55;;;;;;;;;;4990310;28;92063;-79
2023/07/08 08:02:17;;;;;;;8.10;3.22;;;;;;;;;;4988576;28;92711;-79
2023/07/08 08:04:43;;;;;;;8.68;3.30;;;;;;;;;;4995311;28;93162;-81
2023/07/08 08:07:10;;;;;;;6.85;3.42;;;;;;;;;;4992464;28;95063;-79
2023/07/08 08:09:37;;;;;;;8.30;3.60;;;;;;;;;;4988807;28;95776;-79
2023/07/08 08:12:04;;;;;;;8.98;3.53;;;;;;;;;;4971953;28;95621;-79
2023/07/08 08:14:31;;;;;;;;;;;;;;;;;;4974206;28;92924;-78
2023/07/08 08:16:57;;;;;;;7.05;3.13;;;;;;;;;;4989858;28;100864;-78
2023/07/08 08:19:24;;;;;;;8.10;3.20;;;;;;;;;;4988518;28;92518;-79
2023/07/08 08:21:50;;;;;;;6.88;2.92;;;;;;;;;;5001721;28;93210;-79
2023/07/08 08:24:17;;;;;;;6.55;3.22;;;;;;;;;;4990414;28;92386;-79
2023/07/08 08:26:43;;;;;;;7.38;2.97;;;;;;;;;;4989617;28;92943;-81
2023/07/08 08:29:10;;;;;;;7.18;3.10;;;;;;;;;;4988101;28;94299;-79
2023/07/08 08:31:36;;;;;;;7.00;2.80;;;;;;;;;;4987229;28;95462;-80
2023/07/08 08:34:03;;;;;;;6.72;2.95;;;;;;;;;;4990956;28;92923;-81
2023/07/08 08:36:29;;;;;;;6.25;2.90;;;;;;;;;;4992450;28;94547;-80
2023/07/08 08:38:56;;;;;;;7.05;2.67;;;;;;;;;;4988080;28;92441;-80
2023/07/08 08:41:33;;;;;;;5.93;2.60;;;;;;;;;;4986781;28;94188;-81
2023/07/08 08:44:01;;;;;;;6.45;2.88;;;;;;;;;;4987315;28;96124;-80
2023/07/08 08:46:28;;;;;;;7.03;2.92;;;;;;;;;;4977901;28;92516;-80
2023/07/08 08:49:13;;;;;;;5.70;2.80;;;;;;;;;;4989959;28;93378;-80
2023/07/08 08:51:40;;;;;;;;;;;;;;;;;;4999125;28;92941;-80
2023/07/08 08:54:07;;;;;;;5.50;2.50;;;;;;;;;;4990725;28;92436;-80
2023/07/08 08:56:48;;;;;;;5.88;2.67;;;;;;;;;;4990315;28;94838;-78
2023/07/08 08:59:22;;;;;;;5.75;2.83;;;;;;;;;;4989144;28;92505;-78
2023/07/08 09:01:50;;;;;;;5.93;2.75;;;;;;;;;;4988734;28;94136;-78
2023/07/08 09:04:22;;;;;;;5.45;2.60;;;;;;;;;;4990485;28;93750;-80
2023/07/08 09:06:50;;;;;;;5.93;2.67;;;;;;;;;;4999567;28;92618;-80
2023/07/08 09:09:23;;;;;;;7.03;2.80;;;;;;;;;;4988035;28;92853;-79
2023/07/08 09:12:09;;;;;;;5.75;2.88;;;;;;;;;;4987624;28;96222;-79
2023/07/08 09:14:36;;;;;;;8.13;2.90;;;;;;;;;;4984626;28;92142;-78
2023/07/08 09:17:09;;;;;;;5.55;2.72;;;;;;;;;;4991157;28;92785;-78
2023/07/08 09:19:39;;;;;;;6.13;2.78;;;;;;;;;;4990326;28;95468;-78
2023/07/08 09:22:06;;;;;;;7.13;2.92;;;;;;;;;;4996157;28;94808;-78
2023/07/08 09:24:51;;;;;;;6.20;2.92;;;;;;;;;;5002643;28;94080;-78
2023/07/08 09:27:17;;;;;;;6.22;2.70;;;;;;;;;;4988587;28;92379;-78
2023/07/08 09:29:44;;;;;;;5.63;2.67;;;;;;;;;;4989490;28;95893;-78
2023/07/08 09:32:14;;;;;;;5.90;2.97;;;;;;;;;;4988991;28;93070;-78
2023/07/08 09:34:43;;;;;;;5.60;2.60;;;;;;;;;;4988724;28;92553;-78
2023/07/08 09:37:29;;;;;;;6.10;2.95;;;;;;;;;;4995522;28;92950;-80
2023/07/08 09:39:57;;;;;;;6.55;2.90;;;;;;;;;;4990345;28;95308;-80
2023/07/08 09:42:28;;;;;;;5.63;2.75;;;;;;;;;;4993834;28;92438;-80
2023/07/08 09:44:56;;;;;;;6.40;2.80;;;;;;;;;;4988409;28;92997;-81
2023/07/08 09:47:25;;;;;;;6.53;2.50;;;;;;;;;;4966284;28;95192;-82
2023/07/08 09:49:53;;;;;;;6.35;2.85;;;;;;;;;;4974601;28;94424;-82
2023/07/08 09:52:20;;;;;;;6.68;2.80;;;;;;;;;;4991913;28;93735;-82
2023/07/08 09:54:47;;;;;;;6.88;2.88;;;;;;;;;;4975862;28;92563;-82
2023/07/08 09:57:14;;;;;;;7.47;3.00;;;;;;;;;;4994492;28;92338;-82
2023/07/08 09:59:58;;;;;;;7.45;3.03;;;;;;;;;;5010621;28;92236;-81
2023/07/08 10:02:25;;;;;;;6.32;3.05;;;;;;;;;;5014958;28;93125;-81
2023/07/08 10:04:52;;;;;;;6.03;2.95;;;;;;;;;;5014398;28;91801;-83
2023/07/08 10:07:19;;;;;;;6.60;3.00;;;;;;;;;;5025197;28;91917;-82
2023/07/08 10:09:50;;;;;;;7.63;3.08;;;;;;;;;;4995994;28;93101;-82
2023/07/08 10:12:17;;;;;;;9.90;3.30;;;;;;;;;;5008938;28;96303;-81
2023/07/08 10:14:52;;;;;;;7.30;2.95;;;;;;;;;;5014446;28;92494;-81
2023/07/08 10:17:19;;;;;;;7.57;2.97;;;;;;;;;;5005542;28;92717;-83
2023/07/08 10:19:46;;;;;;;7.32;3.17;;;;;;;;;;5002847;28;93147;-83
2023/07/08 10:22:32;;;;;;;7.47;3.30;;;;;;;;;;5009348;28;92411;-82
2023/07/08 10:25:05;;;;;;;8.70;3.20;;;;;;;;;;5001053;28;93314;-83
2023/07/08 10:27:39;;;;;;;7.53;3.00;;;;;;;;;;4992972;28;92623;-83
2023/07/08 10:30:05;;;;;;;9.45;3.20;;;;;;;;;;4996496;28;93276;-82
2023/07/08 10:32:32;;;;;;;7.63;3.28;;;;;;;;;;4994069;28;93519;-83
2023/07/08 10:35:11;;;;;;;7.75;3.70;;;;;;;;;;4991393;28;92814;-82
2023/07/08 10:37:46;;;;;;;7.60;3.63;;;;;;;;;;4979860;28;96542;-82
2023/07/08 10:40:27;;;;;;;8.75;3.20;;;;;;;;;;4981752;28;94045;-83
2023/07/08 10:42:54;;;;;;;9.05;3.30;;;;;;;;;;4993135;28;93589;-84
2023/07/08 10:45:25;;;;;;;11.07;3.50;;;;;;;;;;4992271;28;92552;-81
2023/07/08 10:48:00;;;;;;;8.95;3.58;;;;;;;;;;4995669;28;92960;-82
2023/07/08 10:50:37;;;;;;;8.63;3.70;;;;;;;;;;4990991;28;92773;-82
2023/07/08 10:53:23;;;;;;;9.77;3.80;;;;;;;;;;4986264;28;97127;-82
2023/07/08 10:55:54;;;;;;;9.38;3.67;;;;;;;;;;4992375;28;91798;-84
2023/07/08 10:58:20;;;;;;;12.02;4.10;;;;;;;;;;4995337;28;92950;-81
2023/07/08 11:00:55;;;;;;;8.60;3.42;;;;;;;;;;4992889;28;92944;-81
2023/07/08 11:03:40;;;;;;;12.98;3.92;;;;;;;;;;4991702;28;94895;-83
2023/07/08 11:06:07;;;;;;;;;;;;;;;;;;4983238;28;95783;-82
2023/07/08 11:08:40;;;;;;;8.02;3.70;;;;;;;;;;5001824;28;93134;-83
2023/07/08 11:11:22;;;;;;;8.50;3.78;;;;;;;;;;5005470;28;93272;-83
2023/07/08 11:13:53;;;;;;;8.43;3.60;;;;;;;;;;4990306;28;93536;-82
2023/07/08 11:16:32;;;;;;;8.10;3.53;;;;;;;;;;4991008;28;92466;-82
2023/07/08 11:19:06;;;;;;;8.60;3.88;;;;;;;;;;4987497;28;93895;-81
2023/07/08 11:21:42;;;;;;;8.30;3.70;;;;;;;;;;4991652;28;92280;-81
2023/07/08 11:24:22;;;;;;;8.30;4.00;;;;;;;;;;4991940;28;93038;-82
2023/07/08 11:26:52;;;;;;;8.65;3.78;;;;;;;;;;4989606;28;94176;-81
2023/07/08 11:29:30;;;;;;;8.73;3.78;;;;;;;;;;4988723;28;95749;-81
2023/07/08 11:31:57;;;;;;;7.30;3.65;;;;;;;;;;4990758;28;92959;-81
2023/07/08 11:34:25;;;;;;;9.10;3.60;;;;;;;;;;4995173;28;93141;-83
2023/07/08 11:36:52;;;;;;;7.40;3.70;;;;;;;;;;4995383;28;92488;-82
2023/07/08 11:39:27;;;;;;;7.75;3.78;;;;;;;;;;4996839;28;93829;-82
2023/07/08 11:42:06;;;;;;;7.55;3.85;;;;;;;;;;4990349;28;94651;-82
2023/07/08 11:44:34;;;;;;;7.40;3.70;;;;;;;;;;4974877;28;92841;-82
2023/07/08 11:47:12;;;;;;;8.30;3.85;;;;;;;;;;4991447;28;92672;-82
2023/07/08 11:49:38;;;;;;;7.63;3.80;;;;;;;;;;4980540;28;93524;-80
2023/07/08 11:52:14;;;;;;;7.47;3.95;;;;;;;;;;4993710;28;92523;-82
2023/07/08 11:54:44;;;;;;;7.00;3.50;;;;;;;;;;4993268;28;95101;-82
2023/07/08 11:57:16;;;;;;;9.05;3.75;;;;;;;;;;5001934;28;94773;-82
2023/07/08 11:59:44;;;;;;;9.05;3.60;;;;;;;;;;4995372;28;92411;-87
2023/07/08 12:02:13;;;;;;;9.02;3.55;;;;;;;;;;4978287;28;94475;-86
2023/07/08 12:05:00;;;;;;;9.63;3.53;;;;;;;;;;4998643;28;92360;-85
2023/07/08 12:07:53;;;;;;;9.00;3.78;;;;;;;;;;4992420;28;92791;-87
2023/07/08 12:10:27;;;;;;;7.57;3.70;;;;;;;;;;5002073;28;93367;-87
2023/07/08 12:12:54;;;;;;;10.57;4.00;;;;;;;;;;4997387;28;91799;-87
2023/07/08 12:15:25;;;;;;;7.55;3.72;;;;;;;;;;4997720;28;92453;-86
2023/07/08 12:17:53;;;;;;;7.82;3.95;;;;;;;;;;4995276;28;92455;-87
2023/07/08 12:20:25;;;;;;;7.93;3.42;;;;;;;;;;4990652;28;95419;-86
2023/07/08 12:22:52;;;;;;;7.32;3.70;;;;;;;;;;4989739;28;95916;-88
2023/07/08 12:25:21;;;;;;;9.10;3.80;;;;;;;;;;4992238;28;92439;-88
2023/07/08 12:27:48;;;;;;;8.45;3.75;;;;;;;;;;4992295;28;92708;-86
2023/07/08 12:30:14;;;;;;;;;;;;;;;;;;4991206;28;93046;-81
2023/07/08 12:32:42;;;;;;;11.02;4.10;;;;;;;;;;4989363;28;92495;-83
2023/07/08 12:35:20;;;;;;;20.40;4.80;;;;;;;;;;4976668;28;93802;-80
2023/07/08 12:37:47;;;;;;;26.67;5.18;;;;;;;;;;4995276;28;92332;-81
2023/07/08 12:40:14;;;;;;;23.42;5.18;;;;;;;;;;4988898;28;92779;-81
2023/07/08 12:42:41;;;;;;;;;;;;;;;;;;4989209;28;92918;-81
2023/07/08 12:45:18;;;;;;;15.63;4.03;;;;;;;;;;4975450;28;105417;-80
2023/07/08 12:47:45;;;;;;;14.63;4.20;;;;;;;;;;4979738;28;96121;-81
2023/07/08 12:50:11;;;;;;;;;;;;;;;;;;4975297;28;93201;-81
2023/07/08 12:52:38;;;;;;;11.48;4.18;;;;;;;;;;4981042;28;98737;-81
2023/07/08 12:55:05;;;;;;;8.18;3.70;;;;;;;;;;4988144;28;93720;-82
2023/07/08 12:57:32;;;;;;;;;;;;;;;;;;4988349;28;94066;-81
2023/07/08 12:59:58;;;;;;;8.93;3.75;;;;;;;;;;4977582;28;92509;-81
2023/07/08 13:02:25;;;;;;;9.15;4.22;;;;;;;;;;4989445;28;93685;-81
2023/07/08 13:04:54;;;;;;;9.23;4.10;;;;;;;;;;4987386;28;92845;-82
2023/07/08 13:07:27;;;;;;;10.10;4.05;;;;;;;;;;4991594;28;93211;-82
2023/07/08 13:09:54;;;;;;;7.90;3.55;;;;;;;;;;4989478;28;98457;-81
2023/07/08 13:12:28;;;;;;;7.45;3.67;;;;;;;;;;4985987;28;92673;-81
2023/07/08 13:15:05;;;;;;;10.02;3.75;;;;;;;;;;4957721;28;94478;-80
2023/07/08 13:17:33;;;;;;;11.60;4.28;;;;;;;;;;4988372;28;92396;-82
2023/07/08 13:20:00;;;;;;;8.98;3.80;;;;;;;;;;4989014;28;92903;-82
2023/07/08 13:22:30;;;;;;;7.60;3.67;;;;;;;;;;4990640;28;92407;-81
2023/07/08 13:25:00;;;;;;;10.98;4.10;;;;;;;;;;4992088;28;93078;-81
2023/07/08 13:27:27;;;;;;;8.00;3.60;;;;;;;;;;4980247;28;93020;-81
2023/07/08 13:29:54;;;;;;;;;;;;;;;;;;4989094;28;93344;-81
2023/07/08 13:32:28;;;;;;;8.93;3.60;;;;;;;;;;4990095;28;92809;-82
2023/07/08 13:34:55;;;;;;;8.02;3.75;;;;;;;;;;4986911;28;94845;-82
2023/07/08 13:37:25;;;;;;;8.43;3.30;;;;;;;;;;4997427;28;93074;-81
2023/07/08 13:39:53;;;;;;;8.75;3.65;;;;;;;;;;4988892;28;92429;-81
2023/07/08 13:42:19;;;;;;;10.57;3.95;;;;;;;;;;4986800;28;92625;-82
2023/07/08 13:44:47;;;;;;;7.10;3.40;;;;;;;;;;4990678;28;93143;-82
2023/07/08 13:47:27;;;;;;;7.72;3.83;;;;;;;;;;4991548;28;92804;-81
2023/07/08 13:49:58;;;;;;;7.53;3.50;;;;;;;;;;4991923;28;93578;-82
2023/07/08 13:52:24;;;;;;;6.65;3.22;;;;;;;;;;4999004;28;92211;-82
2023/07/08 13:54:53;;;;;;;8.60;3.72;;;;;;;;;;4993111;28;92465;-82
2023/07/08 13:57:22;;;;;;;8.43;3.53;;;;;;;;;;4991903;28;93369;-81
2023/07/08 13:59:52;;;;;;;7.25;3.55;;;;;;;;;;4990357;28;94838;-82
2023/07/08 14:02:24;;;;;;;7.47;3.58;;;;;;;;;;4991553;28;96582;-82
2023/07/08 14:04:51;;;;;;;8.13;3.67;;;;;;;;;;4991531;28;93430;-82
2023/07/08 14:07:23;;;;;;;7.03;3.60;;;;;;;;;;4994423;28;92451;-82
2023/07/08 14:09:49;;;;;;;9.13;3.97;;;;;;;;;;5000614;28;92679;-81
2023/07/08 14:12:16;;;;;;;7.30;3.50;;;;;;;;;;4991724;28;92560;-81
2023/07/08 14:14:42;;;;;;;7.10;3.60;;;;;;;;;;4992076;28;92689;-83
2023/07/08 14:17:13;;;;;;;7.60;3.60;;;;;;;;;;4991968;28;92823;-83
2023/07/08 14:19:40;;;;;;;7.28;3.50;;;;;;;;;;4973169;28;92451;-83
2023/07/08 14:22:19;;;;;;;7.85;3.75;;;;;;;;;;4971189;28;92791;-82
2023/07/08 14:24:45;;;;;;;9.13;3.60;;;;;;;;;;4977707;28;95850;-82
2023/07/08 14:27:13;;;;;;;8.48;3.42;;;;;;;;;;4983885;28;94703;-82
2023/07/08 14:29:40;;;;;;;7.53;3.45;;;;;;;;;;4984028;28;93172;-82
2023/07/08 14:32:14;;;;;;;7.90;3.67;;;;;;;;;;4987953;28;92877;-82
2023/07/08 14:34:41;;;;;;;7.78;3.60;;;;;;;;;;4987843;28;93544;-82
2023/07/08 14:37:08;;;;;;;;;;;;;;;;;;4989972;28;93758;-83
2023/07/08 14:39:34;;;;;;;7.78;3.75;;;;;;;;;;4990938;28;110990;-82
2023/07/08 14:42:01;;;;;;;8.32;3.85;;;;;;;;;;4991565;28;93001;-82
2023/07/08 14:44:33;;;;;;;8.02;3.97;;;;;;;;;;4996082;28;93384;-82
2023/07/08 14:47:00;;;;;;;8.15;3.58;;;;;;;;;;4990186;28;92492;-82
2023/07/08 14:49:27;;;;;;;8.13;3.90;;;;;;;;;;4987879;28;95216;-81
2023/07/08 14:51:54;;;;;;;7.25;3.92;;;;;;;;;;4991909;28;95852;-81
2023/07/08 14:54:21;;;;;;;9.02;3.90;;;;;;;;;;4989463;28;93019;-83
2023/07/08 14:56:48;;;;;;;7.95;3.80;;;;;;;;;;4989875;28;92949;-82